sensor_id;sensor_type;location;lat;lon;timestamp;temperature;humidity
5136;DHT22;2586;48.710;9.202;2023-04-24T00:01:39;10.40;1.00
5136;DHT22;2586;48.710;9.202;2023-04-24T00:04:05;10.30;99.90
5136;DHT22;2586;48.710;9.202;2023-04-24T00:06:32;10.30;99.90
5136;DHT22;2586;48.710;9.202;2023-04-24T00:09:00;10.30;99.90
5136;DHT22;2586;48.710;9.202;2023-04-24T00:11:26;10.20;99.90
5136;DHT22;2586;48.710;9.202;2023-04-24T00:13:52;10.20;37.40
5136;DHT22;2586;48.710;9.202;2023-04-24T00:16:18;10.20;99.90
5136;DHT22;2586;48.710;9.202;2023-04-24T00:18:43;10.10;31.00
5136;DHT22;2586;48.710;9.202;2023-04-24T00:21:10;10.10;36.50
5136;DHT22;2586;48.710;9.202;2023-04-24T00:23:36;10.20;1.00
5136;DHT22;2586;48.710;9.202;2023-04-24T00:26:01;10.20;1.00
5136;DHT22;2586;48.710;9.202;2023-04-24T00:28:27;10.20;99.90
5136;DHT22;2586;48.710;9.202;2023-04-24T00:30:53;10.20;99.90
5136;DHT22;2586;48.710;9.202;2023-04-24T00:33:19;10.20;1.00
5136;DHT22;2586;48.710;9.202;2023-04-24T00:35:44;10.20;99.90
5136;DHT22;2586;48.710;9.202;2023-04-24T00:38:10;10.30;14.20
5136;DHT22;2586;48.710;9.202;2023-04-24T00:40:36;10.30;1.00
5136;DHT22;2586;48.710;9.202;2023-04-24T00:43:01;10.30;1.00
5136;DHT22;2586;48.710;9.202;2023-04-24T00:45:27;10.40;99.90
5136;DHT22;2586;48.710;9.202;2023-04-24T00:47:53;10.40;1.00
5136;DHT22;2586;48.710;9.202;2023-04-24T00:50:18;10.40;1.00
5136;DHT22;2586;48.710;9.202;2023-04-24T00:52:46;10.40;1.00
5136;DHT22;2586;48.710;9.202;2023-04-24T00:55:12;10.40;1.00
5136;DHT22;2586;48.710;9.202;2023-04-24T00:57:38;10.40;99.90
5136;DHT22;2586;48.710;9.202;2023-04-24T01:00:05;10.40;99.90
5136;DHT22;2586;48.710;9.202;2023-04-24T01:02:31;10.40;99.90
5136;DHT22;2586;48.710;9.202;2023-04-24T01:05:00;10.50;99.90
5136;DHT22;2586;48.710;9.202;2023-04-24T01:07:26;10.50;1.00
5136;DHT22;2586;48.710;9.202;2023-04-24T01:09:52;10.50;1.00
5136;DHT22;2586;48.710;9.202;2023-04-24T01:12:19;10.60;1.00
5136;DHT22;2586;48.710;9.202;2023-04-24T01:14:45;10.70;99.90
5136;DHT22;2586;48.710;9.202;2023-04-24T01:17:11;10.70;99.90
5136;DHT22;2586;48.710;9.202;2023-04-24T01:19:37;10.70;99.90
5136;DHT22;2586;48.710;9.202;2023-04-24T01:22:03;10.70;99.90
5136;DHT22;2586;48.710;9.202;2023-04-24T01:24:30;10.80;99.90
5136;DHT22;2586;48.710;9.202;2023-04-24T01:26:55;10.70;1.00
5136;DHT22;2586;48.710;9.202;2023-04-24T01:29:22;10.70;99.90
5136;DHT22;2586;48.710;9.202;2023-04-24T01:31:48;10.70;99.90
5136;DHT22;2586;48.710;9.202;2023-04-24T01:34:14;10.70;99.90
5136;DHT22;2586;48.710;9.202;2023-04-24T01:36:41;10.70;99.90
5136;DHT22;2586;48.710;9.202;2023-04-24T01:39:08;10.60;1.00
5136;DHT22;2586;48.710;9.202;2023-04-24T01:41:34;10.60;1.00
5136;DHT22;2586;48.710;9.202;2023-04-24T01:44:00;10.60;99.90
5136;DHT22;2586;48.710;9.202;2023-04-24T01:46:25;10.60;99.90
5136;DHT22;2586;48.710;9.202;2023-04-24T01:48:51;10.60;1.00
5136;DHT22;2586;48.710;9.202;2023-04-24T01:51:17;10.50;1.00
5136;DHT22;2586;48.710;9.202;2023-04-24T01:53:43;10.50;1.00
5136;DHT22;2586;48.710;9.202;2023-04-24T01:56:09;10.50;1.00
5136;DHT22;2586;48.710;9.202;2023-04-24T01:58:35;10.50;1.00
5136;DHT22;2586;48.710;9.202;2023-04-24T02:01:01;10.50;1.00
5136;DHT22;2586;48.710;9.202;2023-04-24T02:03:26;10.50;1.00
5136;DHT22;2586;48.710;9.202;2023-04-24T02:05:52;10.50;1.00
5136;DHT22;2586;48.710;9.202;2023-04-24T02:08:18;10.50;1.00
5136;DHT22;2586;48.710;9.202;2023-04-24T02:10:43;10.50;1.00
5136;DHT22;2586;48.710;9.202;2023-04-24T02:13:09;10.40;1.00
5136;DHT22;2586;48.710;9.202;2023-04-24T02:15:35;10.40;99.90
5136;DHT22;2586;48.710;9.202;2023-04-24T02:18:01;10.30;99.90
5136;DHT22;2586;48.710;9.202;2023-04-24T02:20:27;10.40;1.00
5136;DHT22;2586;48.710;9.202;2023-04-24T02:22:52;10.30;1.00
5136;DHT22;2586;48.710;9.202;2023-04-24T02:25:18;10.30;1.00
5136;DHT22;2586;48.710;9.202;2023-04-24T02:27:44;10.30;1.00
5136;DHT22;2586;48.710;9.202;2023-04-24T02:30:09;10.30;99.90
5136;DHT22;2586;48.710;9.202;2023-04-24T02:32:35;10.20;1.00
5136;DHT22;2586;48.710;9.202;2023-04-24T02:35:01;10.20;99.90
5136;DHT22;2586;48.710;9.202;2023-04-24T02:37:26;10.20;1.00
5136;DHT22;2586;48.710;9.202;2023-04-24T02:39:52;10.20;1.00
5136;DHT22;2586;48.710;9.202;2023-04-24T02:42:17;10.20;1.00
5136;DHT22;2586;48.710;9.202;2023-04-24T02:44:43;10.20;1.00
5136;DHT22;2586;48.710;9.202;2023-04-24T02:47:08;10.30;1.00
5136;DHT22;2586;48.710;9.202;2023-04-24T02:49:34;10.20;1.00
5136;DHT22;2586;48.710;9.202;2023-04-24T02:52:00;10.20;1.00
5136;DHT22;2586;48.710;9.202;2023-04-24T02:54:25;10.30;13.20
5136;DHT22;2586;48.710;9.202;2023-04-24T02:56:51;10.30;1.00
5136;DHT22;2586;48.710;9.202;2023-04-24T02:59:16;10.30;7.90
5136;DHT22;2586;48.710;9.202;2023-04-24T03:01:42;10.30;1.00
5136;DHT22;2586;48.710;9.202;2023-04-24T03:04:07;10.40;99.90
5136;DHT22;2586;48.710;9.202;2023-04-24T03:06:33;10.30;99.90
5136;DHT22;2586;48.710;9.202;2023-04-24T03:09:01;10.30;1.00
5136;DHT22;2586;48.710;9.202;2023-04-24T03:11:26;10.40;99.90
5136;DHT22;2586;48.710;9.202;2023-04-24T03:13:52;10.30;1.00
5136;DHT22;2586;48.710;9.202;2023-04-24T03:16:17;10.30;99.90
5136;DHT22;2586;48.710;9.202;2023-04-24T03:18:43;10.30;99.90
5136;DHT22;2586;48.710;9.202;2023-04-24T03:21:08;10.20;1.00
5136;DHT22;2586;48.710;9.202;2023-04-24T03:23:34;10.10;8.60
5136;DHT22;2586;48.710;9.202;2023-04-24T03:25:59;10.10;1.00
5136;DHT22;2586;48.710;9.202;2023-04-24T03:28:25;10.00;1.00
5136;DHT22;2586;48.710;9.202;2023-04-24T03:30:51;9.90;1.00
5136;DHT22;2586;48.710;9.202;2023-04-24T03:33:17;9.90;99.90
5136;DHT22;2586;48.710;9.202;2023-04-24T03:35:42;9.90;16.50
5136;DHT22;2586;48.710;9.202;2023-04-24T03:38:08;9.90;1.00
5136;DHT22;2586;48.710;9.202;2023-04-24T03:40:33;9.90;1.00
5136;DHT22;2586;48.710;9.202;2023-04-24T03:42:59;9.90;1.00
5136;DHT22;2586;48.710;9.202;2023-04-24T03:45:25;9.90;1.00
5136;DHT22;2586;48.710;9.202;2023-04-24T03:47:50;9.80;1.00
5136;DHT22;2586;48.710;9.202;2023-04-24T03:50:16;9.80;1.00
5136;DHT22;2586;48.710;9.202;2023-04-24T03:52:42;9.80;1.00
5136;DHT22;2586;48.710;9.202;2023-04-24T03:55:07;9.80;99.90
5136;DHT22;2586;48.710;9.202;2023-04-24T03:57:33;9.70;99.90
5136;DHT22;2586;48.710;9.202;2023-04-24T03:59:58;9.70;1.00
5136;DHT22;2586;48.710;9.202;2023-04-24T04:02:25;9.70;1.00
5136;DHT22;2586;48.710;9.202;2023-04-24T04:04:50;9.60;1.00
5136;DHT22;2586;48.710;9.202;2023-04-24T04:07:16;9.60;78.90
5136;DHT22;2586;48.710;9.202;2023-04-24T04:09:41;9.60;99.90
5136;DHT22;2586;48.710;9.202;2023-04-24T04:12:07;9.60;99.90
5136;DHT22;2586;48.710;9.202;2023-04-24T04:14:32;9.70;99.90
5136;DHT22;2586;48.710;9.202;2023-04-24T04:16:58;9.70;99.90
5136;DHT22;2586;48.710;9.202;2023-04-24T04:19:24;9.70;1.00
5136;DHT22;2586;48.710;9.202;2023-04-24T04:21:49;9.70;99.90
5136;DHT22;2586;48.710;9.202;2023-04-24T04:24:19;9.80;99.90
5136;DHT22;2586;48.710;9.202;2023-04-24T04:26:46;9.80;1.00
5136;DHT22;2586;48.710;9.202;2023-04-24T04:29:13;9.80;81.80
5136;DHT22;2586;48.710;9.202;2023-04-24T04:31:39;9.80;99.90
5136;DHT22;2586;48.710;9.202;2023-04-24T04:34:05;9.80;1.00
5136;DHT22;2586;48.710;9.202;2023-04-24T04:36:31;9.80;1.00
5136;DHT22;2586;48.710;9.202;2023-04-24T04:38:56;9.80;1.00
5136;DHT22;2586;48.710;9.202;2023-04-24T04:41:22;9.70;1.00
5136;DHT22;2586;48.710;9.202;2023-04-24T04:43:48;9.30;1.00
5136;DHT22;2586;48.710;9.202;2023-04-24T04:46:13;8.80;1.00
5136;DHT22;2586;48.710;9.202;2023-04-24T04:48:39;8.70;1.00
5136;DHT22;2586;48.710;9.202;2023-04-24T04:51:05;8.60;99.90
5136;DHT22;2586;48.710;9.202;2023-04-24T04:53:31;8.50;99.90
5136;DHT22;2586;48.710;9.202;2023-04-24T04:55:57;8.50;24.90
5136;DHT22;2586;48.710;9.202;2023-04-24T04:58:22;8.50;1.00
5136;DHT22;2586;48.710;9.202;2023-04-24T05:00:48;8.50;99.90
5136;DHT22;2586;48.710;9.202;2023-04-24T05:03:14;8.50;48.50
5136;DHT22;2586;48.710;9.202;2023-04-24T05:05:39;8.50;56.20
5136;DHT22;2586;48.710;9.202;2023-04-24T05:08:07;8.60;99.90
5136;DHT22;2586;48.710;9.202;2023-04-24T05:10:33;8.60;99.90
5136;DHT22;2586;48.710;9.202;2023-04-24T05:12:58;8.60;99.90
5136;DHT22;2586;48.710;9.202;2023-04-24T05:15:24;8.60;99.90
5136;DHT22;2586;48.710;9.202;2023-04-24T05:17:50;8.60;99.90
5136;DHT22;2586;48.710;9.202;2023-04-24T05:20:15;8.60;46.70
5136;DHT22;2586;48.710;9.202;2023-04-24T05:22:42;8.50;49.40
5136;DHT22;2586;48.710;9.202;2023-04-24T05:25:07;8.60;99.90
5136;DHT22;2586;48.710;9.202;2023-04-24T05:27:33;8.60;99.90
5136;DHT22;2586;48.710;9.202;2023-04-24T05:29:59;8.50;1.00
5136;DHT22;2586;48.710;9.202;2023-04-24T05:32:25;8.60;37.90
5136;DHT22;2586;48.710;9.202;2023-04-24T05:34:52;8.60;1.00
5136;DHT22;2586;48.710;9.202;2023-04-24T05:37:18;8.60;1.00
5136;DHT22;2586;48.710;9.202;2023-04-24T05:39:43;8.70;75.40
5136;DHT22;2586;48.710;9.202;2023-04-24T05:42:09;8.80;99.90
5136;DHT22;2586;48.710;9.202;2023-04-24T05:44:34;8.80;53.30
5136;DHT22;2586;48.710;9.202;2023-04-24T05:47:00;8.80;1.00
5136;DHT22;2586;48.710;9.202;2023-04-24T05:49:26;8.90;1.00
5136;DHT22;2586;48.710;9.202;2023-04-24T05:51:51;9.00;1.00
5136;DHT22;2586;48.710;9.202;2023-04-24T05:54:17;9.00;1.00
5136;DHT22;2586;48.710;9.202;2023-04-24T05:56:43;9.00;99.90
5136;DHT22;2586;48.710;9.202;2023-04-24T05:59:08;9.00;1.00
5136;DHT22;2586;48.710;9.202;2023-04-24T06:01:34;9.00;99.90
5136;DHT22;2586;48.710;9.202;2023-04-24T06:04:02;9.10;1.00
5136;DHT22;2586;48.710;9.202;2023-04-24T06:06:27;9.10;99.90
5136;DHT22;2586;48.710;9.202;2023-04-24T06:08:54;9.10;99.90
5136;DHT22;2586;48.710;9.202;2023-04-24T06:11:19;9.10;96.60
5136;DHT22;2586;48.710;9.202;2023-04-24T06:13:45;9.00;1.00
5136;DHT22;2586;48.710;9.202;2023-04-24T06:16:11;9.00;99.90
5136;DHT22;2586;48.710;9.202;2023-04-24T06:18:36;9.10;1.00
5136;DHT22;2586;48.710;9.202;2023-04-24T06:21:02;9.00;26.40
5136;DHT22;2586;48.710;9.202;2023-04-24T06:23:28;9.00;99.90
5136;DHT22;2586;48.710;9.202;2023-04-24T06:25:53;9.10;1.00
5136;DHT22;2586;48.710;9.202;2023-04-24T06:28:19;9.20;99.90
5136;DHT22;2586;48.710;9.202;2023-04-24T06:30:44;9.20;1.00
5136;DHT22;2586;48.710;9.202;2023-04-24T06:33:10;9.40;1.00
5136;DHT22;2586;48.710;9.202;2023-04-24T06:35:36;9.60;1.00
5136;DHT22;2586;48.710;9.202;2023-04-24T06:38:03;9.70;1.00
5136;DHT22;2586;48.710;9.202;2023-04-24T06:40:29;9.70;1.00
5136;DHT22;2586;48.710;9.202;2023-04-24T06:42:55;9.80;99.90
5136;DHT22;2586;48.710;9.202;2023-04-24T06:45:20;10.00;1.00
5136;DHT22;2586;48.710;9.202;2023-04-24T06:47:46;10.10;1.00
5136;DHT22;2586;48.710;9.202;2023-04-24T06:50:12;10.40;99.90
5136;DHT22;2586;48.710;9.202;2023-04-24T06:52:37;10.60;1.00
5136;DHT22;2586;48.710;9.202;2023-04-24T06:55:05;10.60;99.90
5136;DHT22;2586;48.710;9.202;2023-04-24T06:57:31;10.60;1.00
5136;DHT22;2586;48.710;9.202;2023-04-24T06:59:56;10.70;1.00
5136;DHT22;2586;48.710;9.202;2023-04-24T07:02:22;11.00;99.90
5136;DHT22;2586;48.710;9.202;2023-04-24T07:04:48;11.00;99.70
5136;DHT22;2586;48.710;9.202;2023-04-24T07:07:14;11.00;4.90
5136;DHT22;2586;48.710;9.202;2023-04-24T07:09:40;11.00;99.90
5136;DHT22;2586;48.710;9.202;2023-04-24T07:12:08;11.00;1.00
5136;DHT22;2586;48.710;9.202;2023-04-24T07:14:36;10.90;99.90
5136;DHT22;2586;48.710;9.202;2023-04-24T07:17:02;10.90;1.00
5136;DHT22;2586;48.710;9.202;2023-04-24T07:19:28;10.70;99.90
5136;DHT22;2586;48.710;9.202;2023-04-24T07:21:54;10.50;1.00
5136;DHT22;2586;48.710;9.202;2023-04-24T07:24:20;10.40;99.90
5136;DHT22;2586;48.710;9.202;2023-04-24T07:26:46;10.30;99.90
5136;DHT22;2586;48.710;9.202;2023-04-24T07:29:12;10.20;1.00
5136;DHT22;2586;48.710;9.202;2023-04-24T07:31:38;10.10;1.00
5136;DHT22;2586;48.710;9.202;2023-04-24T07:34:06;10.10;1.00
5136;DHT22;2586;48.710;9.202;2023-04-24T07:36:32;10.00;99.90
5136;DHT22;2586;48.710;9.202;2023-04-24T07:38:57;10.00;1.00
5136;DHT22;2586;48.710;9.202;2023-04-24T07:41:23;10.10;80.40
5136;DHT22;2586;48.710;9.202;2023-04-24T07:43:49;10.30;99.90
5136;DHT22;2586;48.710;9.202;2023-04-24T07:46:15;10.60;1.00
5136;DHT22;2586;48.710;9.202;2023-04-24T07:48:41;10.90;99.90
5136;DHT22;2586;48.710;9.202;2023-04-24T07:51:06;11.40;35.00
5136;DHT22;2586;48.710;9.202;2023-04-24T07:53:32;11.60;1.00
5136;DHT22;2586;48.710;9.202;2023-04-24T07:55:58;11.80;1.00
5136;DHT22;2586;48.710;9.202;2023-04-24T07:58:24;12.00;1.00
5136;DHT22;2586;48.710;9.202;2023-04-24T08:00:49;12.50;99.90
5136;DHT22;2586;48.710;9.202;2023-04-24T08:03:15;12.50;99.90
5136;DHT22;2586;48.710;9.202;2023-04-24T08:05:43;12.40;99.90
5136;DHT22;2586;48.710;9.202;2023-04-24T08:08:09;12.20;1.00
5136;DHT22;2586;48.710;9.202;2023-04-24T08:10:35;12.20;99.90
5136;DHT22;2586;48.710;9.202;2023-04-24T08:13:00;11.80;99.90
5136;DHT22;2586;48.710;9.202;2023-04-24T08:15:27;11.40;99.90
5136;DHT22;2586;48.710;9.202;2023-04-24T08:17:53;11.20;99.90
5136;DHT22;2586;48.710;9.202;2023-04-24T08:20:18;11.20;99.90
5136;DHT22;2586;48.710;9.202;2023-04-24T08:22:44;11.10;99.90
5136;DHT22;2586;48.710;9.202;2023-04-24T08:25:12;11.10;99.90
5136;DHT22;2586;48.710;9.202;2023-04-24T08:27:37;11.10;99.90
5136;DHT22;2586;48.710;9.202;2023-04-24T08:30:05;11.30;99.90
5136;DHT22;2586;48.710;9.202;2023-04-24T08:32:31;11.20;99.90
5136;DHT22;2586;48.710;9.202;2023-04-24T08:34:57;11.10;99.90
5136;DHT22;2586;48.710;9.202;2023-04-24T08:37:23;11.00;99.90
5136;DHT22;2586;48.710;9.202;2023-04-24T08:39:49;11.30;99.90
5136;DHT22;2586;48.710;9.202;2023-04-24T08:42:17;11.40;99.90
5136;DHT22;2586;48.710;9.202;2023-04-24T08:44:43;11.70;99.90
5136;DHT22;2586;48.710;9.202;2023-04-24T08:47:10;11.80;99.90
5136;DHT22;2586;48.710;9.202;2023-04-24T08:49:36;12.20;99.90
5136;DHT22;2586;48.710;9.202;2023-04-24T08:52:03;12.70;99.90
5136;DHT22;2586;48.710;9.202;2023-04-24T08:54:29;12.60;99.90
5136;DHT22;2586;48.710;9.202;2023-04-24T08:56:59;12.20;99.90
5136;DHT22;2586;48.710;9.202;2023-04-24T08:59:27;12.00;99.90
5136;DHT22;2586;48.710;9.202;2023-04-24T09:01:55;11.80;99.90
5136;DHT22;2586;48.710;9.202;2023-04-24T09:04:22;11.50;99.90
5136;DHT22;2586;48.710;9.202;2023-04-24T09:06:56;11.40;99.90
5136;DHT22;2586;48.710;9.202;2023-04-24T09:09:26;11.90;99.90
5136;DHT22;2586;48.710;9.202;2023-04-24T09:11:53;12.40;99.90
5136;DHT22;2586;48.710;9.202;2023-04-24T09:14:21;12.70;99.90
5136;DHT22;2586;48.710;9.202;2023-04-24T09:16:47;12.80;99.90
5136;DHT22;2586;48.710;9.202;2023-04-24T09:19:13;12.70;99.90
5136;DHT22;2586;48.710;9.202;2023-04-24T09:21:39;13.00;99.90
5136;DHT22;2586;48.710;9.202;2023-04-24T09:24:07;12.70;99.90
5136;DHT22;2586;48.710;9.202;2023-04-24T09:26:35;12.70;99.90
5136;DHT22;2586;48.710;9.202;2023-04-24T09:29:01;12.30;99.90
5136;DHT22;2586;48.710;9.202;2023-04-24T09:31:28;11.90;99.90
5136;DHT22;2586;48.710;9.202;2023-04-24T09:33:55;12.00;99.90
5136;DHT22;2586;48.710;9.202;2023-04-24T09:39:06;12.20;99.90
5136;DHT22;2586;48.710;9.202;2023-04-24T09:41:33;11.90;99.90
5136;DHT22;2586;48.710;9.202;2023-04-24T09:44:19;11.60;92.10
5136;DHT22;2586;48.710;9.202;2023-04-24T09:46:56;12.10;83.50
5136;DHT22;2586;48.710;9.202;2023-04-24T09:49:26;12.70;65.30
5136;DHT22;2586;48.710;9.202;2023-04-24T09:52:02;12.90;41.50
5136;DHT22;2586;48.710;9.202;2023-04-24T09:54:28;13.10;37.60
5136;DHT22;2586;48.710;9.202;2023-04-24T09:56:55;13.80;41.10
5136;DHT22;2586;48.710;9.202;2023-04-24T09:59:22;13.90;26.90
5136;DHT22;2586;48.710;9.202;2023-04-24T10:01:48;14.40;23.60
5136;DHT22;2586;48.710;9.202;2023-04-24T10:04:28;13.70;10.80
5136;DHT22;2586;48.710;9.202;2023-04-24T10:06:55;13.30;16.00
5136;DHT22;2586;48.710;9.202;2023-04-24T10:09:22;12.80;21.10
5136;DHT22;2586;48.710;9.202;2023-04-24T10:11:51;12.30;15.00
5136;DHT22;2586;48.710;9.202;2023-04-24T10:14:18;12.10;18.30
5136;DHT22;2586;48.710;9.202;2023-04-24T10:16:45;12.20;17.60
5136;DHT22;2586;48.710;9.202;2023-04-24T10:19:13;12.30;33.60
5136;DHT22;2586;48.710;9.202;2023-04-24T10:21:40;12.80;22.30
5136;DHT22;2586;48.710;9.202;2023-04-24T10:24:08;13.10;20.50
5136;DHT22;2586;48.710;9.202;2023-04-24T10:26:34;13.40;18.20
5136;DHT22;2586;48.710;9.202;2023-04-24T10:29:00;13.70;10.60
5136;DHT22;2586;48.710;9.202;2023-04-24T10:31:28;13.70;4.40
5136;DHT22;2586;48.710;9.202;2023-04-24T10:33:56;14.00;4.80
5136;DHT22;2586;48.710;9.202;2023-04-24T10:36:24;14.20;1.00
5136;DHT22;2586;48.710;9.202;2023-04-24T10:38:52;14.30;5.40
5136;DHT22;2586;48.710;9.202;2023-04-24T10:41:21;14.40;2.90
5136;DHT22;2586;48.710;9.202;2023-04-24T10:44:10;13.60;2.40
5136;DHT22;2586;48.710;9.202;2023-04-24T10:46:37;13.10;1.00
5136;DHT22;2586;48.710;9.202;2023-04-24T10:49:07;12.70;3.20
5136;DHT22;2586;48.710;9.202;2023-04-24T10:51:51;12.60;7.20
5136;DHT22;2586;48.710;9.202;2023-04-24T10:54:50;13.20;12.20
5136;DHT22;2586;48.710;9.202;2023-04-24T11:02:40;12.90;17.00
5136;DHT22;2586;48.710;9.202;2023-04-24T11:05:09;13.00;16.20
5136;DHT22;2586;48.710;9.202;2023-04-24T11:08:10;12.80;18.60
5136;DHT22;2586;48.710;9.202;2023-04-24T11:10:47;12.70;15.00
5136;DHT22;2586;48.710;9.202;2023-04-24T11:13:21;12.40;17.80
5136;DHT22;2586;48.710;9.202;2023-04-24T11:18:39;11.70;23.70
5136;DHT22;2586;48.710;9.202;2023-04-24T11:21:16;11.70;17.40
5136;DHT22;2586;48.710;9.202;2023-04-24T11:23:42;11.60;20.50
5136;DHT22;2586;48.710;9.202;2023-04-24T11:28:44;11.80;22.70
5136;DHT22;2586;48.710;9.202;2023-04-24T11:31:44;11.90;18.80
5136;DHT22;2586;48.710;9.202;2023-04-24T11:34:15;12.10;25.10
5136;DHT22;2586;48.710;9.202;2023-04-24T11:36:48;12.20;24.90
5136;DHT22;2586;48.710;9.202;2023-04-24T11:39:14;12.20;23.50
5136;DHT22;2586;48.710;9.202;2023-04-24T11:41:40;12.10;23.70
5136;DHT22;2586;48.710;9.202;2023-04-24T11:44:08;12.10;23.60
5136;DHT22;2586;48.710;9.202;2023-04-24T11:46:33;12.00;26.20
5136;DHT22;2586;48.710;9.202;2023-04-24T11:48:59;11.70;29.50
5136;DHT22;2586;48.710;9.202;2023-04-24T11:51:26;11.50;29.60
5136;DHT22;2586;48.710;9.202;2023-04-24T11:53:55;11.30;28.70
5136;DHT22;2586;48.710;9.202;2023-04-24T11:56:23;11.20;33.90
5136;DHT22;2586;48.710;9.202;2023-04-24T11:58:48;11.40;35.00
5136;DHT22;2586;48.710;9.202;2023-04-24T12:01:17;11.50;33.80
5136;DHT22;2586;48.710;9.202;2023-04-24T12:03:47;11.60;31.30
5136;DHT22;2586;48.710;9.202;2023-04-24T12:06:13;11.80;30.90
5136;DHT22;2586;48.710;9.202;2023-04-24T12:08:39;12.30;32.10
5136;DHT22;2586;48.710;9.202;2023-04-24T12:11:06;12.80;32.80
5136;DHT22;2586;48.710;9.202;2023-04-24T12:13:33;12.80;27.90
5136;DHT22;2586;48.710;9.202;2023-04-24T12:16:00;12.60;26.40
5136;DHT22;2586;48.710;9.202;2023-04-24T12:18:26;12.40;28.50
5136;DHT22;2586;48.710;9.202;2023-04-24T12:20:52;11.90;28.00
5136;DHT22;2586;48.710;9.202;2023-04-24T12:23:36;11.80;30.00
5136;DHT22;2586;48.710;9.202;2023-04-24T12:26:04;11.40;34.60
5136;DHT22;2586;48.710;9.202;2023-04-24T12:28:36;11.30;39.70
5136;DHT22;2586;48.710;9.202;2023-04-24T12:31:02;11.30;45.50
5136;DHT22;2586;48.710;9.202;2023-04-24T12:33:32;11.40;44.80
5136;DHT22;2586;48.710;9.202;2023-04-24T12:35:59;11.50;41.50
5136;DHT22;2586;48.710;9.202;2023-04-24T12:38:28;11.70;35.10
5136;DHT22;2586;48.710;9.202;2023-04-24T12:41:09;11.80;40.40
5136;DHT22;2586;48.710;9.202;2023-04-24T12:43:36;11.70;42.20
5136;DHT22;2586;48.710;9.202;2023-04-24T12:46:02;11.70;38.60
5136;DHT22;2586;48.710;9.202;2023-04-24T12:48:28;11.80;45.30
5136;DHT22;2586;48.710;9.202;2023-04-24T12:50:54;11.80;39.50
5136;DHT22;2586;48.710;9.202;2023-04-24T12:53:21;11.70;46.60
5136;DHT22;2586;48.710;9.202;2023-04-24T12:55:47;11.60;44.20
5136;DHT22;2586;48.710;9.202;2023-04-24T12:58:19;11.30;38.50
5136;DHT22;2586;48.710;9.202;2023-04-24T13:00:45;11.20;46.20
5136;DHT22;2586;48.710;9.202;2023-04-24T13:03:12;11.30;47.20
5136;DHT22;2586;48.710;9.202;2023-04-24T13:05:37;11.20;46.50
5136;DHT22;2586;48.710;9.202;2023-04-24T13:08:03;11.20;51.50
5136;DHT22;2586;48.710;9.202;2023-04-24T13:10:28;11.20;61.50
5136;DHT22;2586;48.710;9.202;2023-04-24T13:12:54;11.20;69.10
5136;DHT22;2586;48.710;9.202;2023-04-24T13:15:20;11.00;71.70
5136;DHT22;2586;48.710;9.202;2023-04-24T13:17:45;11.00;75.10
5136;DHT22;2586;48.710;9.202;2023-04-24T13:20:11;10.90;82.80
5136;DHT22;2586;48.710;9.202;2023-04-24T13:22:36;10.80;99.90
5136;DHT22;2586;48.710;9.202;2023-04-24T13:25:02;10.90;99.90
5136;DHT22;2586;48.710;9.202;2023-04-24T13:27:28;11.10;99.90
5136;DHT22;2586;48.710;9.202;2023-04-24T13:29:54;11.60;99.90
5136;DHT22;2586;48.710;9.202;2023-04-24T13:32:19;11.90;99.90
5136;DHT22;2586;48.710;9.202;2023-04-24T13:34:45;12.60;97.90
5136;DHT22;2586;48.710;9.202;2023-04-24T13:37:11;13.70;70.10
5136;DHT22;2586;48.710;9.202;2023-04-24T13:39:37;13.50;52.10
5136;DHT22;2586;48.710;9.202;2023-04-24T13:42:02;12.90;47.70
5136;DHT22;2586;48.710;9.202;2023-04-24T13:44:28;12.50;54.30
5136;DHT22;2586;48.710;9.202;2023-04-24T13:46:55;12.00;55.50
5136;DHT22;2586;48.710;9.202;2023-04-24T13:49:22;11.60;59.30
5136;DHT22;2586;48.710;9.202;2023-04-24T13:51:50;11.40;70.10
5136;DHT22;2586;48.710;9.202;2023-04-24T13:54:16;11.10;91.70
5136;DHT22;2586;48.710;9.202;2023-04-24T13:56:41;10.90;96.50
5136;DHT22;2586;48.710;9.202;2023-04-24T13:59:07;10.70;99.90
5136;DHT22;2586;48.710;9.202;2023-04-24T14:01:33;10.70;99.90
5136;DHT22;2586;48.710;9.202;2023-04-24T14:03:59;11.00;99.90
5136;DHT22;2586;48.710;9.202;2023-04-24T14:06:25;11.20;99.90
5136;DHT22;2586;48.710;9.202;2023-04-24T14:08:51;11.50;99.90
5136;DHT22;2586;48.710;9.202;2023-04-24T14:11:17;11.60;99.90
5136;DHT22;2586;48.710;9.202;2023-04-24T14:13:43;12.30;99.90
5136;DHT22;2586;48.710;9.202;2023-04-24T14:16:10;12.80;99.90
5136;DHT22;2586;48.710;9.202;2023-04-24T14:18:35;12.60;99.90
5136;DHT22;2586;48.710;9.202;2023-04-24T14:21:02;12.20;99.90
5136;DHT22;2586;48.710;9.202;2023-04-24T14:23:28;12.00;99.90
5136;DHT22;2586;48.710;9.202;2023-04-24T14:25:53;11.80;99.90
5136;DHT22;2586;48.710;9.202;2023-04-24T14:28:20;11.80;99.90
5136;DHT22;2586;48.710;9.202;2023-04-24T14:30:49;11.50;99.90
5136;DHT22;2586;48.710;9.202;2023-04-24T14:33:15;10.80;99.90
5136;DHT22;2586;48.710;9.202;2023-04-24T14:35:40;10.10;99.90
5136;DHT22;2586;48.710;9.202;2023-04-24T14:38:07;9.80;99.90
5136;DHT22;2586;48.710;9.202;2023-04-24T14:40:33;10.40;1.00
5136;DHT22;2586;48.710;9.202;2023-04-24T14:42:58;11.00;99.90
5136;DHT22;2586;48.710;9.202;2023-04-24T14:45:25;12.30;1.00
5136;DHT22;2586;48.710;9.202;2023-04-24T14:47:50;13.90;99.90
5136;DHT22;2586;48.710;9.202;2023-04-24T14:50:16;15.40;99.90
5136;DHT22;2586;48.710;9.202;2023-04-24T14:52:42;16.40;99.90
5136;DHT22;2586;48.710;9.202;2023-04-24T14:55:08;16.00;97.90
5136;DHT22;2586;48.710;9.202;2023-04-24T14:57:34;14.80;96.60
5136;DHT22;2586;48.710;9.202;2023-04-24T15:00:01;14.00;99.90
5136;DHT22;2586;48.710;9.202;2023-04-24T15:02:28;14.60;99.90
5136;DHT22;2586;48.710;9.202;2023-04-24T15:04:54;15.90;96.00
5136;DHT22;2586;48.710;9.202;2023-04-24T15:07:20;16.70;77.50
5136;DHT22;2586;48.710;9.202;2023-04-24T15:09:45;17.30;45.60
5136;DHT22;2586;48.710;9.202;2023-04-24T15:12:12;16.60;21.90
5136;DHT22;2586;48.710;9.202;2023-04-24T15:14:38;15.30;39.80
5136;DHT22;2586;48.710;9.202;2023-04-24T15:17:04;14.10;48.40
5136;DHT22;2586;48.710;9.202;2023-04-24T15:19:29;13.60;64.90
5136;DHT22;2586;48.710;9.202;2023-04-24T15:21:55;13.00;72.80
5136;DHT22;2586;48.710;9.202;2023-04-24T15:24:20;12.30;90.60
5136;DHT22;2586;48.710;9.202;2023-04-24T15:26:46;11.90;78.40
5136;DHT22;2586;48.710;9.202;2023-04-24T15:29:11;11.70;95.40
5136;DHT22;2586;48.710;9.202;2023-04-24T15:31:37;11.50;92.90
5136;DHT22;2586;48.710;9.202;2023-04-24T15:34:05;11.40;90.80
5136;DHT22;2586;48.710;9.202;2023-04-24T15:36:31;11.40;93.20
5136;DHT22;2586;48.710;9.202;2023-04-24T15:38:57;11.50;92.30
5136;DHT22;2586;48.710;9.202;2023-04-24T15:41:23;11.40;88.10
5136;DHT22;2586;48.710;9.202;2023-04-24T15:43:48;11.20;80.60
5136;DHT22;2586;48.710;9.202;2023-04-24T15:46:14;11.10;88.90
5136;DHT22;2586;48.710;9.202;2023-04-24T15:48:41;11.00;99.90
5136;DHT22;2586;48.710;9.202;2023-04-24T15:51:07;10.70;1.00
5136;DHT22;2586;48.710;9.202;2023-04-24T15:53:33;10.70;99.90
5136;DHT22;2586;48.710;9.202;2023-04-24T15:55:59;11.50;1.00
5136;DHT22;2586;48.710;9.202;2023-04-24T15:58:24;12.20;99.90
5136;DHT22;2586;48.710;9.202;2023-04-24T16:00:50;11.90;99.90
5136;DHT22;2586;48.710;9.202;2023-04-24T16:03:17;11.50;1.00
5136;DHT22;2586;48.710;9.202;2023-04-24T16:05:42;11.30;1.00
5136;DHT22;2586;48.710;9.202;2023-04-24T16:08:09;11.00;1.00
5136;DHT22;2586;48.710;9.202;2023-04-24T16:10:35;10.90;1.00
5136;DHT22;2586;48.710;9.202;2023-04-24T16:13:00;11.20;99.90
5136;DHT22;2586;48.710;9.202;2023-04-24T16:15:27;11.70;1.00
5136;DHT22;2586;48.710;9.202;2023-04-24T16:17:53;11.80;1.00
5136;DHT22;2586;48.710;9.202;2023-04-24T16:20:18;11.80;1.00